<?xml version="1.0" encoding="UTF-8"?>
<gpx version="1.1" creator="2bulu-scraper" xmlns="http://www.topografix.com/GPX/1/1">
  <metadata><name>昭通鲁甸曹地红岩景观台俯瞰看牛栏江</name><desc>source: 2bulu.com trackId=88364728; exported 2026-09-01T18:33:48.886Z</desc>
    <bounds minlat="27.253855" minlon="103.230416" maxlat="27.256848" maxlon="103.231947"/>
    <link href="https://www.2bulu.com/track/t-Y4YDvu3ZP87p%252FR2KBg5Tzw%253D%253D.htm"><text>2bulu 源页面</text></link>
  </metadata>
  <wpt lat="27.253879" lon="103.231947"><ele>1657</ele><name></name></wpt>
  <wpt lat="27.253855" lon="103.231886"><ele>1655</ele><name></name></wpt>
  <wpt lat="27.254447" lon="103.231813"><ele>1640</ele><name></name></wpt>
  <wpt lat="27.255612" lon="103.230491"><ele>1613</ele><name></name></wpt>
  <wpt lat="27.255663" lon="103.230497"><ele>1615</ele><name></name></wpt>
  <wpt lat="27.255671" lon="103.23044"><ele>1614</ele><name></name></wpt>
  <wpt lat="27.255671" lon="103.23044"><ele>1614</ele><name></name></wpt>
  <wpt lat="27.255585" lon="103.230426"><ele>1613</ele><name></name></wpt>
  <wpt lat="27.255608" lon="103.230521"><ele>1611</ele><name></name></wpt>
  <wpt lat="27.255684" lon="103.230654"><ele>1615</ele><name></name></wpt>
  <wpt lat="27.255762" lon="103.230726"><ele>1617</ele><name></name></wpt>
  <wpt lat="27.255854" lon="103.230776"><ele>1621</ele><name></name></wpt>
  <wpt lat="27.255854" lon="103.230776"><ele>1621</ele><name></name></wpt>
  <wpt lat="27.256064" lon="103.230979"><ele>1616</ele><name></name></wpt>
  <wpt lat="27.256277" lon="103.231089"><ele>1619</ele><name></name></wpt>
  <wpt lat="27.256356" lon="103.23115"><ele>1613</ele><name></name></wpt>
  <wpt lat="27.256631" lon="103.231241"><ele>1615</ele><name></name></wpt>
  <wpt lat="27.256663" lon="103.231198"><ele>1623</ele><name></name></wpt>
  <wpt lat="27.256663" lon="103.231198"><ele>1623</ele><name></name></wpt>
  <wpt lat="27.256663" lon="103.231198"><ele>1623</ele><name></name></wpt>
  <wpt lat="27.256776" lon="103.231299"><ele>1619</ele><name></name></wpt>
  <wpt lat="27.256848" lon="103.231442"><ele>1619</ele><name></name></wpt>
  <wpt lat="27.256848" lon="103.231442"><ele>1619</ele><name></name></wpt>
  <wpt lat="27.256661" lon="103.231133"><ele>1624</ele><name></name></wpt>
  <wpt lat="27.256655" lon="103.231247"><ele>1625</ele><name></name></wpt>
  <wpt lat="27.255298" lon="103.230705"><ele>1623</ele><name></name></wpt>
  <wpt lat="27.25446" lon="103.23166"><ele>1641</ele><name></name></wpt>
  <trk><name>昭通鲁甸曹地红岩景观台俯瞰看牛栏江</name>
      <trkseg>
        <trkpt lat="27.253855" lon="103.231886"><ele>1654.5222</ele><time>2026-08-14T23:58:32.000Z</time></trkpt>
        <trkpt lat="27.2539" lon="103.231902"><ele>1653.0483</ele><time>2026-08-14T23:58:43.000Z</time></trkpt>
        <trkpt lat="27.25394" lon="103.231927"><ele>1652.3691</ele><time>2026-08-14T23:58:48.000Z</time></trkpt>
        <trkpt lat="27.253996" lon="103.231941"><ele>1651.1807</ele><time>2026-08-14T23:58:53.000Z</time></trkpt>
        <trkpt lat="27.254049" lon="103.231947"><ele>1652.2834</ele><time>2026-08-14T23:59:01.000Z</time></trkpt>
        <trkpt lat="27.254095" lon="103.231942"><ele>1650.5151</ele><time>2026-08-14T23:59:06.000Z</time></trkpt>
        <trkpt lat="27.254138" lon="103.231912"><ele>1651.4819</ele><time>2026-08-14T23:59:13.000Z</time></trkpt>
        <trkpt lat="27.25418" lon="103.231876"><ele>1648.1855</ele><time>2026-08-14T23:59:17.000Z</time></trkpt>
        <trkpt lat="27.254226" lon="103.231855"><ele>1646.6099</ele><time>2026-08-14T23:59:25.000Z</time></trkpt>
        <trkpt lat="27.254268" lon="103.231829"><ele>1645.5393</ele><time>2026-08-14T23:59:40.000Z</time></trkpt>
        <trkpt lat="27.254305" lon="103.231798"><ele>1646.4829</ele><time>2026-08-14T23:59:46.000Z</time></trkpt>
        <trkpt lat="27.254353" lon="103.231817"><ele>1644.7585</ele><time>2026-08-14T23:59:53.000Z</time></trkpt>
        <trkpt lat="27.254388" lon="103.231868"><ele>1645.1152</ele><time>2026-08-15T00:00:07.000Z</time></trkpt>
        <trkpt lat="27.254417" lon="103.23191"><ele>1642.1865</ele><time>2026-08-15T00:00:14.000Z</time></trkpt>
        <trkpt lat="27.254439" lon="103.231865"><ele>1639.2114</ele><time>2026-08-15T00:01:18.000Z</time></trkpt>
        <trkpt lat="27.254447" lon="103.231813"><ele>1640.2756</ele><time>2026-08-15T00:01:35.000Z</time></trkpt>
        <trkpt lat="27.254472" lon="103.231761"><ele>1641.9873</ele><time>2026-08-15T00:02:02.000Z</time></trkpt>
        <trkpt lat="27.254488" lon="103.231713"><ele>1641.685</ele><time>2026-08-15T00:02:10.000Z</time></trkpt>
        <trkpt lat="27.254499" lon="103.23166"><ele>1641.112</ele><time>2026-08-15T00:02:16.000Z</time></trkpt>
        <trkpt lat="27.254518" lon="103.231613"><ele>1639.1665</ele><time>2026-08-15T00:02:23.000Z</time></trkpt>
        <trkpt lat="27.254545" lon="103.231563"><ele>1638.7688</ele><time>2026-08-15T00:02:32.000Z</time></trkpt>
        <trkpt lat="27.254576" lon="103.231523"><ele>1638.3389</ele><time>2026-08-15T00:02:51.000Z</time></trkpt>
        <trkpt lat="27.25458" lon="103.231519"><ele>1638.4873</ele><time>2026-08-15T00:02:52.000Z</time></trkpt>
        <trkpt lat="27.254585" lon="103.231516"><ele>1638.3774</ele><time>2026-08-15T00:02:53.000Z</time></trkpt>
        <trkpt lat="27.25459" lon="103.231511"><ele>1638.584</ele><time>2026-08-15T00:02:54.000Z</time></trkpt>
        <trkpt lat="27.254616" lon="103.231469"><ele>1638.8296</ele><time>2026-08-15T00:03:02.000Z</time></trkpt>
        <trkpt lat="27.254648" lon="103.231425"><ele>1638.0076</ele><time>2026-08-15T00:03:10.000Z</time></trkpt>
        <trkpt lat="27.254681" lon="103.231378"><ele>1637.169</ele><time>2026-08-15T00:03:18.000Z</time></trkpt>
        <trkpt lat="27.254706" lon="103.231334"><ele>1636.957</ele><time>2026-08-15T00:03:24.000Z</time></trkpt>
        <trkpt lat="27.254742" lon="103.231301"><ele>1636.4717</ele><time>2026-08-15T00:03:32.000Z</time></trkpt>
        <trkpt lat="27.254769" lon="103.231256"><ele>1635.561</ele><time>2026-08-15T00:03:40.000Z</time></trkpt>
        <trkpt lat="27.254775" lon="103.231198"><ele>1634.2393</ele><time>2026-08-15T00:03:47.000Z</time></trkpt>
        <trkpt lat="27.254782" lon="103.23114"><ele>1634.127</ele><time>2026-08-15T00:03:58.000Z</time></trkpt>
        <trkpt lat="27.2548" lon="103.231092"><ele>1634.76</ele><time>2026-08-15T00:04:03.000Z</time></trkpt>
        <trkpt lat="27.254829" lon="103.23105"><ele>1634.8955</ele><time>2026-08-15T00:04:11.000Z</time></trkpt>
        <trkpt lat="27.254874" lon="103.231026"><ele>1634.0913</ele><time>2026-08-15T00:04:23.000Z</time></trkpt>
        <trkpt lat="27.25489" lon="103.230976"><ele>1633.1365</ele><time>2026-08-15T00:04:31.000Z</time></trkpt>
        <trkpt lat="27.254916" lon="103.230928"><ele>1632.6692</ele><time>2026-08-15T00:04:42.000Z</time></trkpt>
        <trkpt lat="27.254965" lon="103.230928"><ele>1631.9131</ele><time>2026-08-15T00:04:51.000Z</time></trkpt>
        <trkpt lat="27.255001" lon="103.230969"><ele>1631.957</ele><time>2026-08-15T00:04:58.000Z</time></trkpt>
        <trkpt lat="27.255049" lon="103.230983"><ele>1631.6694</ele><time>2026-08-15T00:05:09.000Z</time></trkpt>
        <trkpt lat="27.255084" lon="103.230951"><ele>1631.2656</ele><time>2026-08-15T00:05:20.000Z</time></trkpt>
        <trkpt lat="27.255122" lon="103.230918"><ele>1629.7192</ele><time>2026-08-15T00:05:28.000Z</time></trkpt>
        <trkpt lat="27.255157" lon="103.230879"><ele>1627.7686</ele><time>2026-08-15T00:05:40.000Z</time></trkpt>
        <trkpt lat="27.255188" lon="103.230841"><ele>1625.9497</ele><time>2026-08-15T00:05:56.000Z</time></trkpt>
        <trkpt lat="27.255218" lon="103.230804"><ele>1622.2753</ele><time>2026-08-15T00:06:10.000Z</time></trkpt>
        <trkpt lat="27.255259" lon="103.230779"><ele>1621.8379</ele><time>2026-08-15T00:06:19.000Z</time></trkpt>
        <trkpt lat="27.255287" lon="103.230739"><ele>1620.3372</ele><time>2026-08-15T00:06:28.000Z</time></trkpt>
        <trkpt lat="27.255325" lon="103.230699"><ele>1618.8513</ele><time>2026-08-15T00:06:40.000Z</time></trkpt>
        <trkpt lat="27.255375" lon="103.230708"><ele>1615.5109</ele><time>2026-08-15T00:06:57.000Z</time></trkpt>
        <trkpt lat="27.255423" lon="103.230715"><ele>1617.1687</ele><time>2026-08-15T00:07:10.000Z</time></trkpt>
        <trkpt lat="27.255471" lon="103.230699"><ele>1617.7537</ele><time>2026-08-15T00:07:28.000Z</time></trkpt>
        <trkpt lat="27.255513" lon="103.230677"><ele>1616.2041</ele><time>2026-08-15T00:07:37.000Z</time></trkpt>
        <trkpt lat="27.255545" lon="103.230636"><ele>1614.6531</ele><time>2026-08-15T00:07:44.000Z</time></trkpt>
        <trkpt lat="27.255582" lon="103.230593"><ele>1615.9799</ele><time>2026-08-15T00:07:51.000Z</time></trkpt>
        <trkpt lat="27.255597" lon="103.230544"><ele>1616.1534</ele><time>2026-08-15T00:08:03.000Z</time></trkpt>
        <trkpt lat="27.255612" lon="103.230491"><ele>1613.4198</ele><time>2026-08-15T00:08:14.000Z</time></trkpt>
        <trkpt lat="27.255629" lon="103.23054"><ele>1614.3643</ele><time>2026-08-15T00:08:42.000Z</time></trkpt>
        <trkpt lat="27.255663" lon="103.230497"><ele>1614.5414</ele><time>2026-08-15T00:08:55.000Z</time></trkpt>
        <trkpt lat="27.255671" lon="103.23044"><ele>1613.6177</ele><time>2026-08-15T00:09:03.000Z</time></trkpt>
        <trkpt lat="27.25563" lon="103.230416"><ele>1613.3875</ele><time>2026-08-15T00:10:25.000Z</time></trkpt>
        <trkpt lat="27.255585" lon="103.230426"><ele>1612.9854</ele><time>2026-08-15T00:11:33.000Z</time></trkpt>
        <trkpt lat="27.255604" lon="103.230473"><ele>1614.2716</ele><time>2026-08-15T00:12:03.000Z</time></trkpt>
        <trkpt lat="27.255628" lon="103.230425"><ele>1613.587</ele><time>2026-08-15T00:12:46.000Z</time></trkpt>
        <trkpt lat="27.255676" lon="103.230436"><ele>1611.0267</ele><time>2026-08-15T00:16:08.000Z</time></trkpt>
        <trkpt lat="27.255638" lon="103.230477"><ele>1610.813</ele><time>2026-08-15T00:16:26.000Z</time></trkpt>
        <trkpt lat="27.255608" lon="103.230521"><ele>1611.1567</ele><time>2026-08-15T00:16:36.000Z</time></trkpt>
        <trkpt lat="27.255631" lon="103.230568"><ele>1617.7926</ele><time>2026-08-15T00:17:10.000Z</time></trkpt>
        <trkpt lat="27.255666" lon="103.230602"><ele>1616.0648</ele><time>2026-08-15T00:17:21.000Z</time></trkpt>
        <trkpt lat="27.255684" lon="103.230654"><ele>1615.2114</ele><time>2026-08-15T00:17:48.000Z</time></trkpt>
        <trkpt lat="27.25572" lon="103.230696"><ele>1614.0187</ele><time>2026-08-15T00:18:37.000Z</time></trkpt>
        <trkpt lat="27.255762" lon="103.230726"><ele>1616.9746</ele><time>2026-08-15T00:18:59.000Z</time></trkpt>
        <trkpt lat="27.255818" lon="103.230745"><ele>1612.5068</ele><time>2026-08-15T00:19:20.000Z</time></trkpt>
        <trkpt lat="27.255854" lon="103.230776"><ele>1620.9713</ele><time>2026-08-15T00:19:33.000Z</time></trkpt>
        <trkpt lat="27.255902" lon="103.230776"><ele>1619.8425</ele><time>2026-08-15T00:21:02.000Z</time></trkpt>
        <trkpt lat="27.255935" lon="103.230823"><ele>1617.5493</ele><time>2026-08-15T00:22:18.000Z</time></trkpt>
        <trkpt lat="27.255975" lon="103.230851"><ele>1618.2296</ele><time>2026-08-15T00:22:55.000Z</time></trkpt>
        <trkpt lat="27.256" lon="103.2309"><ele>1617.8541</ele><time>2026-08-15T00:23:06.000Z</time></trkpt>
        <trkpt lat="27.256033" lon="103.230938"><ele>1615.3834</ele><time>2026-08-15T00:23:22.000Z</time></trkpt>
        <trkpt lat="27.256064" lon="103.230979"><ele>1616.3707</ele><time>2026-08-15T00:23:30.000Z</time></trkpt>
        <trkpt lat="27.256102" lon="103.231008"><ele>1616.6958</ele><time>2026-08-15T00:24:50.000Z</time></trkpt>
        <trkpt lat="27.256146" lon="103.231019"><ele>1617.3176</ele><time>2026-08-15T00:25:03.000Z</time></trkpt>
        <trkpt lat="27.256193" lon="103.231037"><ele>1618.1393</ele><time>2026-08-15T00:25:42.000Z</time></trkpt>
        <trkpt lat="27.256229" lon="103.231076"><ele>1617.8041</ele><time>2026-08-15T00:25:51.000Z</time></trkpt>
        <trkpt lat="27.256277" lon="103.231089"><ele>1619.1255</ele><time>2026-08-15T00:26:01.000Z</time></trkpt>
        <trkpt lat="27.256324" lon="103.231108"><ele>1614.9121</ele><time>2026-08-15T00:26:12.000Z</time></trkpt>
        <trkpt lat="27.256356" lon="103.23115"><ele>1612.9663</ele><time>2026-08-15T00:26:56.000Z</time></trkpt>
        <trkpt lat="27.256374" lon="103.231199"><ele>1611.5718</ele><time>2026-08-15T00:27:18.000Z</time></trkpt>
        <trkpt lat="27.256413" lon="103.23117"><ele>1607.8677</ele><time>2026-08-15T00:28:20.000Z</time></trkpt>
        <trkpt lat="27.25646" lon="103.231193"><ele>1610.6987</ele><time>2026-08-15T00:28:30.000Z</time></trkpt>
        <trkpt lat="27.2565" lon="103.231219"><ele>1617.5718</ele><time>2026-08-15T00:29:12.000Z</time></trkpt>
        <trkpt lat="27.256547" lon="103.231232"><ele>1619.1372</ele><time>2026-08-15T00:29:20.000Z</time></trkpt>
        <trkpt lat="27.256591" lon="103.231217"><ele>1615.4653</ele><time>2026-08-15T00:29:34.000Z</time></trkpt>
        <trkpt lat="27.256631" lon="103.231241"><ele>1615.085</ele><time>2026-08-15T00:29:47.000Z</time></trkpt>
        <trkpt lat="27.256663" lon="103.231198"><ele>1622.5067</ele><time>2026-08-15T00:30:11.000Z</time></trkpt>
        <trkpt lat="27.256617" lon="103.2312"><ele>1621.7448</ele><time>2026-08-15T00:35:10.000Z</time></trkpt>
        <trkpt lat="27.256567" lon="103.231194"><ele>1623.1904</ele><time>2026-08-15T00:35:23.000Z</time></trkpt>
        <trkpt lat="27.256617" lon="103.231199"><ele>1622.5829</ele><time>2026-08-15T00:36:08.000Z</time></trkpt>
        <trkpt lat="27.256664" lon="103.2312"><ele>1622.843</ele><time>2026-08-15T00:36:15.000Z</time></trkpt>
        <trkpt lat="27.256697" lon="103.231238"><ele>1623.1581</ele><time>2026-08-15T00:36:22.000Z</time></trkpt>
        <trkpt lat="27.256733" lon="103.231272"><ele>1621.5691</ele><time>2026-08-15T00:36:30.000Z</time></trkpt>
        <trkpt lat="27.256776" lon="103.231299"><ele>1618.977</ele><time>2026-08-15T00:36:40.000Z</time></trkpt>
        <trkpt lat="27.256796" lon="103.23135"><ele>1621.8105</ele><time>2026-08-15T00:36:50.000Z</time></trkpt>
        <trkpt lat="27.256814" lon="103.231407"><ele>1617.4037</ele><time>2026-08-15T00:37:10.000Z</time></trkpt>
        <trkpt lat="27.256848" lon="103.231442"><ele>1618.9648</ele><time>2026-08-15T00:37:23.000Z</time></trkpt>
        <trkpt lat="27.256834" lon="103.231393"><ele>1619.0985</ele><time>2026-08-15T00:44:21.000Z</time></trkpt>
        <trkpt lat="27.256803" lon="103.231354"><ele>1620.2079</ele><time>2026-08-15T00:44:25.000Z</time></trkpt>
        <trkpt lat="27.256767" lon="103.23132"><ele>1619.3373</ele><time>2026-08-15T00:44:30.000Z</time></trkpt>
        <trkpt lat="27.256735" lon="103.231281"><ele>1621.2883</ele><time>2026-08-15T00:44:38.000Z</time></trkpt>
        <trkpt lat="27.256709" lon="103.231236"><ele>1621.269</ele><time>2026-08-15T00:44:49.000Z</time></trkpt>
        <trkpt lat="27.256707" lon="103.231229"><ele>1621.0999</ele><time>2026-08-15T00:44:50.000Z</time></trkpt>
        <trkpt lat="27.256707" lon="103.231224"><ele>1619.3813</ele><time>2026-08-15T00:44:51.000Z</time></trkpt>
        <trkpt lat="27.256735" lon="103.231183"><ele>1624.128</ele><time>2026-08-15T00:45:52.000Z</time></trkpt>
        <trkpt lat="27.256688" lon="103.231176"><ele>1623.6417</ele><time>2026-08-15T00:46:16.000Z</time></trkpt>
        <trkpt lat="27.256738" lon="103.231199"><ele>1623.7957</ele><time>2026-08-15T00:47:01.000Z</time></trkpt>
        <trkpt lat="27.25669" lon="103.231173"><ele>1623.7537</ele><time>2026-08-15T00:48:13.000Z</time></trkpt>
        <trkpt lat="27.256661" lon="103.231133"><ele>1623.75</ele><time>2026-08-15T00:49:01.000Z</time></trkpt>
        <trkpt lat="27.256695" lon="103.231168"><ele>1623.4586</ele><time>2026-08-15T00:50:04.000Z</time></trkpt>
        <trkpt lat="27.256695" lon="103.231224"><ele>1624.5146</ele><time>2026-08-15T00:51:11.000Z</time></trkpt>
        <trkpt lat="27.256655" lon="103.231247"><ele>1625.2246</ele><time>2026-08-15T00:51:29.000Z</time></trkpt>
        <trkpt lat="27.256659" lon="103.231194"><ele>1624.652</ele><time>2026-08-15T00:54:36.000Z</time></trkpt>
        <trkpt lat="27.256612" lon="103.231208"><ele>1623.7246</ele><time>2026-08-15T00:57:45.000Z</time></trkpt>
        <trkpt lat="27.256566" lon="103.231209"><ele>1622.4327</ele><time>2026-08-15T00:57:55.000Z</time></trkpt>
        <trkpt lat="27.256532" lon="103.231243"><ele>1620.7834</ele><time>2026-08-15T00:58:11.000Z</time></trkpt>
        <trkpt lat="27.256492" lon="103.231218"><ele>1619.6655</ele><time>2026-08-15T00:58:20.000Z</time></trkpt>
        <trkpt lat="27.256451" lon="103.231196"><ele>1619.1458</ele><time>2026-08-15T00:58:28.000Z</time></trkpt>
        <trkpt lat="27.256414" lon="103.23116"><ele>1618.2219</ele><time>2026-08-15T00:59:07.000Z</time></trkpt>
        <trkpt lat="27.256367" lon="103.231141"><ele>1617.7028</ele><time>2026-08-15T00:59:36.000Z</time></trkpt>
        <trkpt lat="27.256318" lon="103.231124"><ele>1620.5942</ele><time>2026-08-15T01:00:04.000Z</time></trkpt>
        <trkpt lat="27.256366" lon="103.231142"><ele>1619.0583</ele><time>2026-08-15T01:00:16.000Z</time></trkpt>
        <trkpt lat="27.25632" lon="103.231133"><ele>1621.4862</ele><time>2026-08-15T01:01:54.000Z</time></trkpt>
        <trkpt lat="27.256279" lon="103.231106"><ele>1621.404</ele><time>2026-08-15T01:02:08.000Z</time></trkpt>
        <trkpt lat="27.256235" lon="103.231086"><ele>1621.7617</ele><time>2026-08-15T01:02:16.000Z</time></trkpt>
        <trkpt lat="27.256188" lon="103.231074"><ele>1622.2855</ele><time>2026-08-15T01:02:22.000Z</time></trkpt>
        <trkpt lat="27.25615" lon="103.231042"><ele>1621.3811</ele><time>2026-08-15T01:02:31.000Z</time></trkpt>
        <trkpt lat="27.256106" lon="103.23102"><ele>1620.8529</ele><time>2026-08-15T01:02:39.000Z</time></trkpt>
        <trkpt lat="27.256073" lon="103.230973"><ele>1621.5015</ele><time>2026-08-15T01:02:52.000Z</time></trkpt>
        <trkpt lat="27.256048" lon="103.230924"><ele>1622.7592</ele><time>2026-08-15T01:03:00.000Z</time></trkpt>
        <trkpt lat="27.256013" lon="103.230886"><ele>1622.5773</ele><time>2026-08-15T01:03:10.000Z</time></trkpt>
        <trkpt lat="27.255979" lon="103.230853"><ele>1621.9559</ele><time>2026-08-15T01:03:18.000Z</time></trkpt>
        <trkpt lat="27.255937" lon="103.230831"><ele>1626.7238</ele><time>2026-08-15T01:03:34.000Z</time></trkpt>
        <trkpt lat="27.255892" lon="103.230811"><ele>1624.049</ele><time>2026-08-15T01:03:42.000Z</time></trkpt>
        <trkpt lat="27.255854" lon="103.230782"><ele>1624.2502</ele><time>2026-08-15T01:03:49.000Z</time></trkpt>
        <trkpt lat="27.25581" lon="103.230764"><ele>1622.6298</ele><time>2026-08-15T01:03:59.000Z</time></trkpt>
        <trkpt lat="27.255772" lon="103.230733"><ele>1621.9935</ele><time>2026-08-15T01:04:10.000Z</time></trkpt>
        <trkpt lat="27.255741" lon="103.230689"><ele>1622.0085</ele><time>2026-08-15T01:04:18.000Z</time></trkpt>
        <trkpt lat="27.255709" lon="103.23065"><ele>1621.1814</ele><time>2026-08-15T01:04:36.000Z</time></trkpt>
        <trkpt lat="27.25567" lon="103.230623"><ele>1621.225</ele><time>2026-08-15T01:04:42.000Z</time></trkpt>
        <trkpt lat="27.25563" lon="103.2306"><ele>1621.2369</ele><time>2026-08-15T01:04:55.000Z</time></trkpt>
        <trkpt lat="27.255591" lon="103.230574"><ele>1621.1066</ele><time>2026-08-15T01:05:05.000Z</time></trkpt>
        <trkpt lat="27.255546" lon="103.230601"><ele>1621.3528</ele><time>2026-08-15T01:05:14.000Z</time></trkpt>
        <trkpt lat="27.255515" lon="103.230639"><ele>1621.6554</ele><time>2026-08-15T01:05:27.000Z</time></trkpt>
        <trkpt lat="27.255485" lon="103.230678"><ele>1622.0725</ele><time>2026-08-15T01:05:37.000Z</time></trkpt>
        <trkpt lat="27.25544" lon="103.2307"><ele>1622.0427</ele><time>2026-08-15T01:05:51.000Z</time></trkpt>
        <trkpt lat="27.255391" lon="103.230708"><ele>1621.8749</ele><time>2026-08-15T01:06:08.000Z</time></trkpt>
        <trkpt lat="27.255342" lon="103.230691"><ele>1620.4546</ele><time>2026-08-15T01:06:19.000Z</time></trkpt>
        <trkpt lat="27.255298" lon="103.230705"><ele>1622.8136</ele><time>2026-08-15T01:06:30.000Z</time></trkpt>
        <trkpt lat="27.255277" lon="103.23075"><ele>1624.397</ele><time>2026-08-15T01:07:02.000Z</time></trkpt>
        <trkpt lat="27.255256" lon="103.230795"><ele>1624.4512</ele><time>2026-08-15T01:07:27.000Z</time></trkpt>
        <trkpt lat="27.255208" lon="103.230808"><ele>1629.9019</ele><time>2026-08-15T01:08:08.000Z</time></trkpt>
        <trkpt lat="27.255174" lon="103.230841"><ele>1631.6843</ele><time>2026-08-15T01:08:28.000Z</time></trkpt>
        <trkpt lat="27.255126" lon="103.230865"><ele>1631.3595</ele><time>2026-08-15T01:08:39.000Z</time></trkpt>
        <trkpt lat="27.255088" lon="103.230898"><ele>1633.0317</ele><time>2026-08-15T01:08:46.000Z</time></trkpt>
        <trkpt lat="27.255048" lon="103.23093"><ele>1636.7675</ele><time>2026-08-15T01:09:09.000Z</time></trkpt>
        <trkpt lat="27.255003" lon="103.230925"><ele>1636.7952</ele><time>2026-08-15T01:09:31.000Z</time></trkpt>
        <trkpt lat="27.25496" lon="103.230904"><ele>1639.3937</ele><time>2026-08-15T01:09:42.000Z</time></trkpt>
        <trkpt lat="27.254913" lon="103.2309"><ele>1636.4843</ele><time>2026-08-15T01:09:52.000Z</time></trkpt>
        <trkpt lat="27.254885" lon="103.230941"><ele>1641.5591</ele><time>2026-08-15T01:10:10.000Z</time></trkpt>
        <trkpt lat="27.254852" lon="103.230977"><ele>1642.892</ele><time>2026-08-15T01:10:28.000Z</time></trkpt>
        <trkpt lat="27.254822" lon="103.231019"><ele>1643.5814</ele><time>2026-08-15T01:10:43.000Z</time></trkpt>
        <trkpt lat="27.254787" lon="103.231063"><ele>1644.0831</ele><time>2026-08-15T01:11:07.000Z</time></trkpt>
        <trkpt lat="27.25476" lon="103.231125"><ele>1644.7047</ele><time>2026-08-15T01:11:24.000Z</time></trkpt>
        <trkpt lat="27.25476" lon="103.231176"><ele>1644.3369</ele><time>2026-08-15T01:11:29.000Z</time></trkpt>
        <trkpt lat="27.254736" lon="103.231223"><ele>1644.3315</ele><time>2026-08-15T01:11:38.000Z</time></trkpt>
        <trkpt lat="27.254724" lon="103.231278"><ele>1644.6288</ele><time>2026-08-15T01:11:44.000Z</time></trkpt>
        <trkpt lat="27.254697" lon="103.231326"><ele>1644.3043</ele><time>2026-08-15T01:11:51.000Z</time></trkpt>
        <trkpt lat="27.254666" lon="103.231365"><ele>1643.982</ele><time>2026-08-15T01:11:57.000Z</time></trkpt>
        <trkpt lat="27.254637" lon="103.231408"><ele>1643.5143</ele><time>2026-08-15T01:12:04.000Z</time></trkpt>
        <trkpt lat="27.254608" lon="103.231451"><ele>1643.291</ele><time>2026-08-15T01:12:11.000Z</time></trkpt>
        <trkpt lat="27.254578" lon="103.231496"><ele>1642.1779</ele><time>2026-08-15T01:12:20.000Z</time></trkpt>
        <trkpt lat="27.254542" lon="103.231529"><ele>1637.1921</ele><time>2026-08-15T01:12:28.000Z</time></trkpt>
        <trkpt lat="27.254501" lon="103.231553"><ele>1641.6659</ele><time>2026-08-15T01:12:35.000Z</time></trkpt>
        <trkpt lat="27.254479" lon="103.231605"><ele>1641.5112</ele><time>2026-08-15T01:12:44.000Z</time></trkpt>
        <trkpt lat="27.25446" lon="103.23166"><ele>1641.3314</ele><time>2026-08-15T01:12:51.000Z</time></trkpt>
        <trkpt lat="27.254468" lon="103.231719"><ele>1643.3643</ele><time>2026-08-15T01:13:13.000Z</time></trkpt>
        <trkpt lat="27.254449" lon="103.231767"><ele>1643.965</ele><time>2026-08-15T01:13:22.000Z</time></trkpt>
        <trkpt lat="27.254407" lon="103.231794"><ele>1643.688</ele><time>2026-08-15T01:13:41.000Z</time></trkpt>
        <trkpt lat="27.254411" lon="103.231846"><ele>1645.8328</ele><time>2026-08-15T01:13:48.000Z</time></trkpt>
        <trkpt lat="27.25437" lon="103.231823"><ele>1648.6228</ele><time>2026-08-15T01:14:18.000Z</time></trkpt>
        <trkpt lat="27.254326" lon="103.231802"><ele>1650.2385</ele><time>2026-08-15T01:14:31.000Z</time></trkpt>
        <trkpt lat="27.254279" lon="103.231799"><ele>1649.7782</ele><time>2026-08-15T01:14:43.000Z</time></trkpt>
        <trkpt lat="27.25424" lon="103.231829"><ele>1652.6047</ele><time>2026-08-15T01:14:56.000Z</time></trkpt>
        <trkpt lat="27.254196" lon="103.231845"><ele>1653.2013</ele><time>2026-08-15T01:15:14.000Z</time></trkpt>
        <trkpt lat="27.254153" lon="103.231876"><ele>1653.5405</ele><time>2026-08-15T01:15:21.000Z</time></trkpt>
        <trkpt lat="27.254108" lon="103.231887"><ele>1654.2145</ele><time>2026-08-15T01:15:36.000Z</time></trkpt>
        <trkpt lat="27.254065" lon="103.231907"><ele>1654.5997</ele><time>2026-08-15T01:15:45.000Z</time></trkpt>
        <trkpt lat="27.254014" lon="103.231901"><ele>1655.7633</ele><time>2026-08-15T01:15:56.000Z</time></trkpt>
        <trkpt lat="27.25399" lon="103.231849"><ele>1656.0374</ele><time>2026-08-15T01:16:03.000Z</time></trkpt>
        <trkpt lat="27.253969" lon="103.231801"><ele>1656.1855</ele><time>2026-08-15T01:16:11.000Z</time></trkpt>
        <trkpt lat="27.253941" lon="103.23175"><ele>1655.8475</ele><time>2026-08-15T01:16:19.000Z</time></trkpt>
        <trkpt lat="27.253905" lon="103.231718"><ele>1656.0381</ele><time>2026-08-15T01:16:26.000Z</time></trkpt>
        <trkpt lat="27.253951" lon="103.231723"><ele>1658.059</ele><time>2026-08-15T01:18:52.000Z</time></trkpt>
      </trkseg>
  </trk>
</gpx>